sensor_id;sensor_type;location;lat;lon;timestamp;temperature;humidity
66366;DHT22;53162;56.418;23.752;2022-07-06T00:01:09;14.80;99.90
66366;DHT22;53162;56.418;23.752;2022-07-06T00:03:37;14.80;99.90
66366;DHT22;53162;56.418;23.752;2022-07-06T00:06:05;14.90;99.90
66366;DHT22;53162;56.418;23.752;2022-07-06T00:08:34;14.90;99.90
66366;DHT22;53162;56.418;23.752;2022-07-06T00:11:02;14.80;99.90
66366;DHT22;53162;56.418;23.752;2022-07-06T00:13:30;14.80;99.90
66366;DHT22;53162;56.418;23.752;2022-07-06T00:15:58;14.60;99.90
66366;DHT22;53162;56.418;23.752;2022-07-06T00:18:26;14.60;99.90
66366;DHT22;53162;56.418;23.752;2022-07-06T00:20:55;14.40;99.90
66366;DHT22;53162;56.418;23.752;2022-07-06T00:23:23;14.30;99.90
66366;DHT22;53162;56.418;23.752;2022-07-06T00:25:51;14.20;99.90
66366;DHT22;53162;56.418;23.752;2022-07-06T00:28:20;14.20;99.90
66366;DHT22;53162;56.418;23.752;2022-07-06T00:30:48;14.20;99.90
66366;DHT22;53162;56.418;23.752;2022-07-06T00:33:16;14.10;99.90
66366;DHT22;53162;56.418;23.752;2022-07-06T00:35:44;14.10;99.90
66366;DHT22;53162;56.418;23.752;2022-07-06T00:38:12;14.10;99.90
66366;DHT22;53162;56.418;23.752;2022-07-06T00:40:40;14.00;99.90
66366;DHT22;53162;56.418;23.752;2022-07-06T00:43:09;14.10;99.90
66366;DHT22;53162;56.418;23.752;2022-07-06T00:45:37;14.00;99.90
66366;DHT22;53162;56.418;23.752;2022-07-06T00:48:06;13.90;99.90
66366;DHT22;53162;56.418;23.752;2022-07-06T00:50:34;13.90;99.90
66366;DHT22;53162;56.418;23.752;2022-07-06T00:53:03;13.90;99.90
66366;DHT22;53162;56.418;23.752;2022-07-06T00:55:33;13.80;99.90
66366;DHT22;53162;56.418;23.752;2022-07-06T00:58:01;13.80;99.90
66366;DHT22;53162;56.418;23.752;2022-07-06T01:00:30;13.90;99.90
66366;DHT22;53162;56.418;23.752;2022-07-06T01:02:59;13.90;99.90
66366;DHT22;53162;56.418;23.752;2022-07-06T01:05:27;13.90;99.90
66366;DHT22;53162;56.418;23.752;2022-07-06T01:07:56;13.80;99.90
66366;DHT22;53162;56.418;23.752;2022-07-06T01:10:24;13.90;99.90
66366;DHT22;53162;56.418;23.752;2022-07-06T01:12:52;13.90;99.90
66366;DHT22;53162;56.418;23.752;2022-07-06T01:15:21;13.90;99.90
66366;DHT22;53162;56.418;23.752;2022-07-06T01:17:49;13.80;99.90
66366;DHT22;53162;56.418;23.752;2022-07-06T01:20:17;13.80;99.90
66366;DHT22;53162;56.418;23.752;2022-07-06T01:22:46;13.80;99.90
66366;DHT22;53162;56.418;23.752;2022-07-06T01:25:14;13.70;99.90
66366;DHT22;53162;56.418;23.752;2022-07-06T01:27:43;13.70;99.90
66366;DHT22;53162;56.418;23.752;2022-07-06T01:30:11;13.60;99.90
66366;DHT22;53162;56.418;23.752;2022-07-06T01:32:40;13.70;99.90
66366;DHT22;53162;56.418;23.752;2022-07-06T01:35:09;13.70;99.90
66366;DHT22;53162;56.418;23.752;2022-07-06T01:37:37;13.70;99.90
66366;DHT22;53162;56.418;23.752;2022-07-06T01:40:07;13.80;99.90
66366;DHT22;53162;56.418;23.752;2022-07-06T01:42:35;13.80;99.90
66366;DHT22;53162;56.418;23.752;2022-07-06T01:45:04;13.80;99.90
66366;DHT22;53162;56.418;23.752;2022-07-06T01:47:33;13.80;99.90
66366;DHT22;53162;56.418;23.752;2022-07-06T01:50:03;13.80;99.90
66366;DHT22;53162;56.418;23.752;2022-07-06T01:52:31;13.70;99.90
66366;DHT22;53162;56.418;23.752;2022-07-06T01:54:59;13.70;99.90
66366;DHT22;53162;56.418;23.752;2022-07-06T01:57:27;13.80;99.90
66366;DHT22;53162;56.418;23.752;2022-07-06T01:59:55;13.80;99.90
66366;DHT22;53162;56.418;23.752;2022-07-06T02:02:23;13.70;99.90
66366;DHT22;53162;56.418;23.752;2022-07-06T02:04:52;13.70;99.90
66366;DHT22;53162;56.418;23.752;2022-07-06T02:07:20;13.60;99.90
66366;DHT22;53162;56.418;23.752;2022-07-06T02:09:48;13.60;99.90
66366;DHT22;53162;56.418;23.752;2022-07-06T02:12:16;13.50;99.90
66366;DHT22;53162;56.418;23.752;2022-07-06T02:14:44;13.50;99.90
66366;DHT22;53162;56.418;23.752;2022-07-06T02:17:12;13.50;99.90
66366;DHT22;53162;56.418;23.752;2022-07-06T02:19:40;13.60;99.90
66366;DHT22;53162;56.418;23.752;2022-07-06T02:22:09;13.60;99.90
66366;DHT22;53162;56.418;23.752;2022-07-06T02:24:38;13.70;99.90
66366;DHT22;53162;56.418;23.752;2022-07-06T02:27:06;13.80;99.90
66366;DHT22;53162;56.418;23.752;2022-07-06T02:29:34;13.80;99.90
66366;DHT22;53162;56.418;23.752;2022-07-06T02:32:02;13.80;99.90
66366;DHT22;53162;56.418;23.752;2022-07-06T02:34:31;13.90;99.90
66366;DHT22;53162;56.418;23.752;2022-07-06T02:36:59;14.10;99.90
66366;DHT22;53162;56.418;23.752;2022-07-06T02:39:27;14.30;99.90
66366;DHT22;53162;56.418;23.752;2022-07-06T02:41:55;14.50;99.90
66366;DHT22;53162;56.418;23.752;2022-07-06T02:44:24;14.80;99.90
66366;DHT22;53162;56.418;23.752;2022-07-06T02:46:52;15.00;99.90
66366;DHT22;53162;56.418;23.752;2022-07-06T02:49:20;15.10;99.90
66366;DHT22;53162;56.418;23.752;2022-07-06T02:51:48;15.40;99.90
66366;DHT22;53162;56.418;23.752;2022-07-06T02:54:16;15.40;99.90
66366;DHT22;53162;56.418;23.752;2022-07-06T02:56:44;15.40;99.90
66366;DHT22;53162;56.418;23.752;2022-07-06T02:59:14;15.20;99.90
66366;DHT22;53162;56.418;23.752;2022-07-06T03:01:42;15.00;99.90
66366;DHT22;53162;56.418;23.752;2022-07-06T03:04:10;15.00;99.90
66366;DHT22;53162;56.418;23.752;2022-07-06T03:06:38;14.90;99.90
66366;DHT22;53162;56.418;23.752;2022-07-06T03:09:06;14.90;99.90
66366;DHT22;53162;56.418;23.752;2022-07-06T03:11:34;14.80;99.90
66366;DHT22;53162;56.418;23.752;2022-07-06T03:14:03;14.80;99.90
66366;DHT22;53162;56.418;23.752;2022-07-06T03:16:32;14.90;99.90
66366;DHT22;53162;56.418;23.752;2022-07-06T03:19:00;14.90;99.90
66366;DHT22;53162;56.418;23.752;2022-07-06T03:21:28;14.90;99.90
66366;DHT22;53162;56.418;23.752;2022-07-06T03:23:56;14.90;99.90
66366;DHT22;53162;56.418;23.752;2022-07-06T03:26:24;14.90;99.90
66366;DHT22;53162;56.418;23.752;2022-07-06T03:28:53;15.00;99.90
66366;DHT22;53162;56.418;23.752;2022-07-06T03:31:21;15.10;99.90
66366;DHT22;53162;56.418;23.752;2022-07-06T03:33:49;15.20;99.90
66366;DHT22;53162;56.418;23.752;2022-07-06T03:36:17;15.20;99.90
66366;DHT22;53162;56.418;23.752;2022-07-06T03:38:45;15.30;99.90
66366;DHT22;53162;56.418;23.752;2022-07-06T03:41:13;15.30;99.90
66366;DHT22;53162;56.418;23.752;2022-07-06T03:43:42;15.40;99.90
66366;DHT22;53162;56.418;23.752;2022-07-06T03:46:10;15.50;99.90
66366;DHT22;53162;56.418;23.752;2022-07-06T03:48:38;15.60;99.90
66366;DHT22;53162;56.418;23.752;2022-07-06T03:51:06;15.70;99.90
66366;DHT22;53162;56.418;23.752;2022-07-06T03:53:34;15.80;99.90
66366;DHT22;53162;56.418;23.752;2022-07-06T03:56:03;15.80;99.90
66366;DHT22;53162;56.418;23.752;2022-07-06T03:58:48;15.90;99.90
66366;DHT22;53162;56.418;23.752;2022-07-06T04:01:16;15.90;99.90
66366;DHT22;53162;56.418;23.752;2022-07-06T04:03:44;15.90;99.90
66366;DHT22;53162;56.418;23.752;2022-07-06T04:06:13;15.90;99.90
66366;DHT22;53162;56.418;23.752;2022-07-06T04:08:41;16.00;99.90
66366;DHT22;53162;56.418;23.752;2022-07-06T04:11:09;15.90;99.90
66366;DHT22;53162;56.418;23.752;2022-07-06T04:13:37;15.90;99.90
66366;DHT22;53162;56.418;23.752;2022-07-06T04:16:06;15.90;99.90
66366;DHT22;53162;56.418;23.752;2022-07-06T04:18:36;15.90;99.90
66366;DHT22;53162;56.418;23.752;2022-07-06T04:21:04;15.90;99.90
66366;DHT22;53162;56.418;23.752;2022-07-06T04:23:32;16.10;99.90
66366;DHT22;53162;56.418;23.752;2022-07-06T04:26:00;16.30;99.90
66366;DHT22;53162;56.418;23.752;2022-07-06T04:28:28;16.30;99.90
66366;DHT22;53162;56.418;23.752;2022-07-06T04:30:56;16.40;99.90
66366;DHT22;53162;56.418;23.752;2022-07-06T04:33:24;16.50;99.90
66366;DHT22;53162;56.418;23.752;2022-07-06T04:35:53;16.60;99.90
66366;DHT22;53162;56.418;23.752;2022-07-06T04:38:21;16.80;99.90
66366;DHT22;53162;56.418;23.752;2022-07-06T04:40:49;16.90;99.90
66366;DHT22;53162;56.418;23.752;2022-07-06T04:43:17;16.90;99.90
66366;DHT22;53162;56.418;23.752;2022-07-06T04:45:45;16.90;99.90
66366;DHT22;53162;56.418;23.752;2022-07-06T04:48:13;16.70;99.90
66366;DHT22;53162;56.418;23.752;2022-07-06T04:50:42;16.80;99.90
66366;DHT22;53162;56.418;23.752;2022-07-06T04:53:10;16.70;99.90
66366;DHT22;53162;56.418;23.752;2022-07-06T04:55:41;16.60;99.90
66366;DHT22;53162;56.418;23.752;2022-07-06T04:58:10;16.50;99.90
66366;DHT22;53162;56.418;23.752;2022-07-06T05:00:38;16.40;99.90
66366;DHT22;53162;56.418;23.752;2022-07-06T05:03:06;16.40;99.90
66366;DHT22;53162;56.418;23.752;2022-07-06T05:05:34;16.40;99.90
66366;DHT22;53162;56.418;23.752;2022-07-06T05:08:02;16.50;99.90
66366;DHT22;53162;56.418;23.752;2022-07-06T05:10:30;16.60;99.90
66366;DHT22;53162;56.418;23.752;2022-07-06T05:12:58;16.60;99.90
66366;DHT22;53162;56.418;23.752;2022-07-06T05:15:26;16.70;99.90
66366;DHT22;53162;56.418;23.752;2022-07-06T05:17:54;16.80;99.90
66366;DHT22;53162;56.418;23.752;2022-07-06T05:20:23;16.80;99.90
66366;DHT22;53162;56.418;23.752;2022-07-06T05:22:51;16.90;99.90
66366;DHT22;53162;56.418;23.752;2022-07-06T05:25:19;16.80;99.90
66366;DHT22;53162;56.418;23.752;2022-07-06T05:27:48;16.90;99.90
66366;DHT22;53162;56.418;23.752;2022-07-06T05:30:16;17.00;99.90
66366;DHT22;53162;56.418;23.752;2022-07-06T05:32:44;17.20;99.90
66366;DHT22;53162;56.418;23.752;2022-07-06T05:35:12;17.30;99.90
66366;DHT22;53162;56.418;23.752;2022-07-06T05:37:40;17.50;99.90
66366;DHT22;53162;56.418;23.752;2022-07-06T05:40:10;17.50;99.90
66366;DHT22;53162;56.418;23.752;2022-07-06T05:42:38;17.70;99.90
66366;DHT22;53162;56.418;23.752;2022-07-06T05:45:07;17.80;99.90
66366;DHT22;53162;56.418;23.752;2022-07-06T05:47:35;17.80;99.90
66366;DHT22;53162;56.418;23.752;2022-07-06T05:50:29;17.80;99.90
66366;DHT22;53162;56.418;23.752;2022-07-06T05:52:58;17.60;99.90
66366;DHT22;53162;56.418;23.752;2022-07-06T05:55:27;17.40;99.90
66366;DHT22;53162;56.418;23.752;2022-07-06T05:57:55;17.40;99.90
66366;DHT22;53162;56.418;23.752;2022-07-06T06:00:24;17.30;99.90
66366;DHT22;53162;56.418;23.752;2022-07-06T06:02:52;17.30;99.90
66366;DHT22;53162;56.418;23.752;2022-07-06T06:05:21;17.40;99.90
66366;DHT22;53162;56.418;23.752;2022-07-06T06:07:49;17.40;99.90
66366;DHT22;53162;56.418;23.752;2022-07-06T06:10:18;17.50;99.90
66366;DHT22;53162;56.418;23.752;2022-07-06T06:12:46;17.50;99.90
66366;DHT22;53162;56.418;23.752;2022-07-06T06:15:14;17.60;99.90
66366;DHT22;53162;56.418;23.752;2022-07-06T06:17:42;17.50;99.90
66366;DHT22;53162;56.418;23.752;2022-07-06T06:20:11;17.50;99.90
66366;DHT22;53162;56.418;23.752;2022-07-06T06:22:46;17.60;99.90
66366;DHT22;53162;56.418;23.752;2022-07-06T06:25:15;17.80;99.90
66366;DHT22;53162;56.418;23.752;2022-07-06T06:27:43;17.90;99.90
66366;DHT22;53162;56.418;23.752;2022-07-06T06:30:12;18.10;99.90
66366;DHT22;53162;56.418;23.752;2022-07-06T06:32:41;18.00;99.90
66366;DHT22;53162;56.418;23.752;2022-07-06T06:35:09;17.90;99.90
66366;DHT22;53162;56.418;23.752;2022-07-06T06:37:37;17.80;99.90
66366;DHT22;53162;56.418;23.752;2022-07-06T06:40:06;17.90;99.90
66366;DHT22;53162;56.418;23.752;2022-07-06T06:42:36;18.10;99.90
66366;DHT22;53162;56.418;23.752;2022-07-06T06:45:06;18.20;99.90
66366;DHT22;53162;56.418;23.752;2022-07-06T06:47:34;18.40;99.90
66366;DHT22;53162;56.418;23.752;2022-07-06T06:50:02;18.60;99.90
66366;DHT22;53162;56.418;23.752;2022-07-06T06:52:30;18.60;99.90
66366;DHT22;53162;56.418;23.752;2022-07-06T06:54:59;18.70;99.90
66366;DHT22;53162;56.418;23.752;2022-07-06T06:57:27;18.60;99.90
66366;DHT22;53162;56.418;23.752;2022-07-06T06:59:56;18.50;99.90
66366;DHT22;53162;56.418;23.752;2022-07-06T07:02:24;18.50;99.90
66366;DHT22;53162;56.418;23.752;2022-07-06T07:04:53;18.60;99.90
66366;DHT22;53162;56.418;23.752;2022-07-06T07:07:21;18.70;99.90
66366;DHT22;53162;56.418;23.752;2022-07-06T07:09:49;18.70;99.90
66366;DHT22;53162;56.418;23.752;2022-07-06T07:12:17;18.80;99.90
66366;DHT22;53162;56.418;23.752;2022-07-06T07:14:45;18.80;99.90
66366;DHT22;53162;56.418;23.752;2022-07-06T07:17:14;18.90;99.90
66366;DHT22;53162;56.418;23.752;2022-07-06T07:19:42;19.10;99.90
66366;DHT22;53162;56.418;23.752;2022-07-06T07:22:10;19.10;99.90
66366;DHT22;53162;56.418;23.752;2022-07-06T07:24:39;19.00;99.90
66366;DHT22;53162;56.418;23.752;2022-07-06T07:27:07;19.10;99.90
66366;DHT22;53162;56.418;23.752;2022-07-06T07:29:35;19.00;99.90
66366;DHT22;53162;56.418;23.752;2022-07-06T07:32:05;19.10;99.90
66366;DHT22;53162;56.418;23.752;2022-07-06T07:34:33;19.20;99.90
66366;DHT22;53162;56.418;23.752;2022-07-06T07:37:01;19.40;99.90
66366;DHT22;53162;56.418;23.752;2022-07-06T07:39:29;19.50;99.90
66366;DHT22;53162;56.418;23.752;2022-07-06T07:41:57;19.40;99.90
66366;DHT22;53162;56.418;23.752;2022-07-06T07:44:25;19.50;99.90
66366;DHT22;53162;56.418;23.752;2022-07-06T07:46:53;19.50;99.90
66366;DHT22;53162;56.418;23.752;2022-07-06T07:49:21;19.50;99.90
66366;DHT22;53162;56.418;23.752;2022-07-06T07:51:50;19.40;99.90
66366;DHT22;53162;56.418;23.752;2022-07-06T07:54:18;19.40;99.90
66366;DHT22;53162;56.418;23.752;2022-07-06T07:56:46;19.40;99.90
66366;DHT22;53162;56.418;23.752;2022-07-06T07:59:14;19.50;99.90
66366;DHT22;53162;56.418;23.752;2022-07-06T08:01:42;19.40;99.90
66366;DHT22;53162;56.418;23.752;2022-07-06T08:04:11;19.50;99.90
66366;DHT22;53162;56.418;23.752;2022-07-06T08:06:39;19.40;99.90
66366;DHT22;53162;56.418;23.752;2022-07-06T08:09:07;19.60;99.90
66366;DHT22;53162;56.418;23.752;2022-07-06T08:11:36;19.70;99.90
66366;DHT22;53162;56.418;23.752;2022-07-06T08:14:04;19.70;99.90
66366;DHT22;53162;56.418;23.752;2022-07-06T08:16:32;19.60;99.90
66366;DHT22;53162;56.418;23.752;2022-07-06T08:19:00;19.50;99.90
66366;DHT22;53162;56.418;23.752;2022-07-06T08:21:28;19.40;99.90
66366;DHT22;53162;56.418;23.752;2022-07-06T08:23:56;19.30;99.90
66366;DHT22;53162;56.418;23.752;2022-07-06T08:26:26;19.20;99.90
66366;DHT22;53162;56.418;23.752;2022-07-06T08:28:55;19.30;99.90
66366;DHT22;53162;56.418;23.752;2022-07-06T08:31:23;19.40;99.90
66366;DHT22;53162;56.418;23.752;2022-07-06T08:33:52;19.50;99.90
66366;DHT22;53162;56.418;23.752;2022-07-06T08:36:20;19.50;99.90
66366;DHT22;53162;56.418;23.752;2022-07-06T08:38:48;19.60;99.90
66366;DHT22;53162;56.418;23.752;2022-07-06T08:41:17;19.80;99.90
66366;DHT22;53162;56.418;23.752;2022-07-06T08:43:47;19.90;99.90
66366;DHT22;53162;56.418;23.752;2022-07-06T08:46:15;19.80;99.90
66366;DHT22;53162;56.418;23.752;2022-07-06T08:48:43;19.90;99.90
66366;DHT22;53162;56.418;23.752;2022-07-06T08:51:13;19.90;99.90
66366;DHT22;53162;56.418;23.752;2022-07-06T08:53:42;20.10;99.90
66366;DHT22;53162;56.418;23.752;2022-07-06T08:56:10;20.00;99.90
66366;DHT22;53162;56.418;23.752;2022-07-06T08:58:38;19.90;99.90
66366;DHT22;53162;56.418;23.752;2022-07-06T09:01:08;20.00;99.90
66366;DHT22;53162;56.418;23.752;2022-07-06T09:03:37;20.20;99.90
66366;DHT22;53162;56.418;23.752;2022-07-06T09:06:06;20.30;99.90
66366;DHT22;53162;56.418;23.752;2022-07-06T09:08:35;20.20;99.90
66366;DHT22;53162;56.418;23.752;2022-07-06T09:11:03;20.20;99.90
66366;DHT22;53162;56.418;23.752;2022-07-06T09:13:32;20.10;99.90
66366;DHT22;53162;56.418;23.752;2022-07-06T09:16:09;20.10;99.90
66366;DHT22;53162;56.418;23.752;2022-07-06T09:18:37;20.10;99.90
66366;DHT22;53162;56.418;23.752;2022-07-06T09:21:06;20.20;99.90
66366;DHT22;53162;56.418;23.752;2022-07-06T09:23:34;20.10;99.90
66366;DHT22;53162;56.418;23.752;2022-07-06T09:26:03;20.10;99.90
66366;DHT22;53162;56.418;23.752;2022-07-06T09:28:41;20.00;99.90
66366;DHT22;53162;56.418;23.752;2022-07-06T09:31:10;20.20;99.90
66366;DHT22;53162;56.418;23.752;2022-07-06T09:33:38;20.10;99.90
66366;DHT22;53162;56.418;23.752;2022-07-06T09:36:08;20.20;99.90
66366;DHT22;53162;56.418;23.752;2022-07-06T09:38:36;20.30;99.90
66366;DHT22;53162;56.418;23.752;2022-07-06T09:41:04;20.40;99.90
66366;DHT22;53162;56.418;23.752;2022-07-06T09:43:32;20.30;99.90
66366;DHT22;53162;56.418;23.752;2022-07-06T09:46:00;20.20;99.90
66366;DHT22;53162;56.418;23.752;2022-07-06T09:48:30;20.20;99.90
66366;DHT22;53162;56.418;23.752;2022-07-06T09:50:58;20.40;99.90
66366;DHT22;53162;56.418;23.752;2022-07-06T09:53:28;20.40;99.90
66366;DHT22;53162;56.418;23.752;2022-07-06T09:55:57;20.60;99.90
66366;DHT22;53162;56.418;23.752;2022-07-06T09:58:25;20.60;99.90
66366;DHT22;53162;56.418;23.752;2022-07-06T10:00:53;20.70;99.90
66366;DHT22;53162;56.418;23.752;2022-07-06T10:03:22;20.90;99.90
66366;DHT22;53162;56.418;23.752;2022-07-06T10:05:50;20.70;99.90
66366;DHT22;53162;56.418;23.752;2022-07-06T10:08:18;20.60;99.90
66366;DHT22;53162;56.418;23.752;2022-07-06T10:10:47;20.90;99.90
66366;DHT22;53162;56.418;23.752;2022-07-06T10:13:16;21.10;99.90
66366;DHT22;53162;56.418;23.752;2022-07-06T10:15:45;21.10;99.90
66366;DHT22;53162;56.418;23.752;2022-07-06T10:18:14;21.40;99.90
66366;DHT22;53162;56.418;23.752;2022-07-06T10:20:42;21.50;99.90
66366;DHT22;53162;56.418;23.752;2022-07-06T10:23:10;21.50;99.90
66366;DHT22;53162;56.418;23.752;2022-07-06T10:25:38;21.70;99.90
66366;DHT22;53162;56.418;23.752;2022-07-06T10:28:07;21.60;99.90
66366;DHT22;53162;56.418;23.752;2022-07-06T10:30:37;21.60;99.90
66366;DHT22;53162;56.418;23.752;2022-07-06T10:33:07;21.60;99.90
66366;DHT22;53162;56.418;23.752;2022-07-06T10:35:35;21.50;99.90
66366;DHT22;53162;56.418;23.752;2022-07-06T10:38:06;21.70;99.90
66366;DHT22;53162;56.418;23.752;2022-07-06T10:40:36;21.60;99.90
66366;DHT22;53162;56.418;23.752;2022-07-06T10:43:22;21.60;99.90
66366;DHT22;53162;56.418;23.752;2022-07-06T10:45:52;21.60;99.50
66366;DHT22;53162;56.418;23.752;2022-07-06T10:48:23;21.70;99.90
66366;DHT22;53162;56.418;23.752;2022-07-06T10:50:54;21.80;99.90
66366;DHT22;53162;56.418;23.752;2022-07-06T10:53:23;22.10;99.90
66366;DHT22;53162;56.418;23.752;2022-07-06T10:55:52;22.20;99.60
66366;DHT22;53162;56.418;23.752;2022-07-06T10:58:37;22.00;99.10
66366;DHT22;53162;56.418;23.752;2022-07-06T11:01:06;22.10;99.80
66366;DHT22;53162;56.418;23.752;2022-07-06T11:03:36;22.00;99.90
66366;DHT22;53162;56.418;23.752;2022-07-06T11:06:08;21.80;99.20
66366;DHT22;53162;56.418;23.752;2022-07-06T11:08:43;21.70;99.90
66366;DHT22;53162;56.418;23.752;2022-07-06T11:11:12;21.30;99.90
66366;DHT22;53162;56.418;23.752;2022-07-06T11:13:49;21.40;99.60
66366;DHT22;53162;56.418;23.752;2022-07-06T11:16:17;21.40;99.90
66366;DHT22;53162;56.418;23.752;2022-07-06T11:18:50;21.40;99.90
66366;DHT22;53162;56.418;23.752;2022-07-06T11:21:19;21.30;99.90
66366;DHT22;53162;56.418;23.752;2022-07-06T11:23:48;21.20;99.90
66366;DHT22;53162;56.418;23.752;2022-07-06T11:26:17;21.50;99.90
66366;DHT22;53162;56.418;23.752;2022-07-06T11:28:46;21.50;99.60
66366;DHT22;53162;56.418;23.752;2022-07-06T11:31:17;21.80;99.90
66366;DHT22;53162;56.418;23.752;2022-07-06T11:33:46;21.60;99.20
66366;DHT22;53162;56.418;23.752;2022-07-06T11:36:18;21.60;99.30
66366;DHT22;53162;56.418;23.752;2022-07-06T11:38:47;21.50;99.30
66366;DHT22;53162;56.418;23.752;2022-07-06T11:41:15;21.60;99.50
66366;DHT22;53162;56.418;23.752;2022-07-06T11:43:44;21.60;99.60
66366;DHT22;53162;56.418;23.752;2022-07-06T11:46:22;21.60;99.70
66366;DHT22;53162;56.418;23.752;2022-07-06T11:48:51;21.30;99.30
66366;DHT22;53162;56.418;23.752;2022-07-06T11:51:20;21.10;99.80
66366;DHT22;53162;56.418;23.752;2022-07-06T11:53:48;21.20;99.90
66366;DHT22;53162;56.418;23.752;2022-07-06T11:56:17;21.30;99.90
66366;DHT22;53162;56.418;23.752;2022-07-06T11:58:49;21.20;99.90
66366;DHT22;53162;56.418;23.752;2022-07-06T12:01:18;21.20;99.90
66366;DHT22;53162;56.418;23.752;2022-07-06T12:03:46;21.30;99.90
66366;DHT22;53162;56.418;23.752;2022-07-06T12:06:15;21.10;99.90
66366;DHT22;53162;56.418;23.752;2022-07-06T12:08:44;20.80;99.90
66366;DHT22;53162;56.418;23.752;2022-07-06T12:11:17;20.80;99.90
66366;DHT22;53162;56.418;23.752;2022-07-06T12:13:46;20.70;99.90
66366;DHT22;53162;56.418;23.752;2022-07-06T12:16:14;20.60;99.90
66366;DHT22;53162;56.418;23.752;2022-07-06T12:18:43;20.40;99.90
66366;DHT22;53162;56.418;23.752;2022-07-06T12:21:12;20.30;99.90
66366;DHT22;53162;56.418;23.752;2022-07-06T12:23:42;20.00;99.90
66366;DHT22;53162;56.418;23.752;2022-07-06T12:26:10;19.80;99.90
66366;DHT22;53162;56.418;23.752;2022-07-06T12:28:38;18.90;99.90
66366;DHT22;53162;56.418;23.752;2022-07-06T12:31:07;18.10;99.90
66366;DHT22;53162;56.418;23.752;2022-07-06T12:33:35;17.80;99.90
66366;DHT22;53162;56.418;23.752;2022-07-06T12:36:14;17.40;99.90
66366;DHT22;53162;56.418;23.752;2022-07-06T12:38:46;17.10;99.90
66366;DHT22;53162;56.418;23.752;2022-07-06T12:41:28;16.80;99.90
66366;DHT22;53162;56.418;23.752;2022-07-06T12:44:00;16.70;99.90
66366;DHT22;53162;56.418;23.752;2022-07-06T12:46:30;16.80;99.90
66366;DHT22;53162;56.418;23.752;2022-07-06T12:48:59;16.90;99.90
66366;DHT22;53162;56.418;23.752;2022-07-06T12:51:27;16.90;99.90
66366;DHT22;53162;56.418;23.752;2022-07-06T12:54:12;16.90;99.90
66366;DHT22;53162;56.418;23.752;2022-07-06T12:59:39;17.00;99.90
66366;DHT22;53162;56.418;23.752;2022-07-06T13:02:08;16.90;99.90
66366;DHT22;53162;56.418;23.752;2022-07-06T13:04:37;17.10;99.90
66366;DHT22;53162;56.418;23.752;2022-07-06T13:07:05;17.20;99.90
66366;DHT22;53162;56.418;23.752;2022-07-06T13:09:33;17.40;99.90
66366;DHT22;53162;56.418;23.752;2022-07-06T13:12:03;17.70;99.90
66366;DHT22;53162;56.418;23.752;2022-07-06T13:14:31;18.00;99.90
66366;DHT22;53162;56.418;23.752;2022-07-06T13:16:59;18.30;99.90
66366;DHT22;53162;56.418;23.752;2022-07-06T13:19:28;18.60;99.90
66366;DHT22;53162;56.418;23.752;2022-07-06T13:21:56;18.80;99.90
66366;DHT22;53162;56.418;23.752;2022-07-06T13:24:25;18.80;99.90
66366;DHT22;53162;56.418;23.752;2022-07-06T13:26:54;18.80;99.90
66366;DHT22;53162;56.418;23.752;2022-07-06T13:29:23;18.90;99.90
66366;DHT22;53162;56.418;23.752;2022-07-06T13:31:51;18.90;99.90
66366;DHT22;53162;56.418;23.752;2022-07-06T13:34:19;19.00;99.90
66366;DHT22;53162;56.418;23.752;2022-07-06T13:36:48;19.00;99.90
66366;DHT22;53162;56.418;23.752;2022-07-06T13:39:16;19.20;99.90
66366;DHT22;53162;56.418;23.752;2022-07-06T13:41:44;19.60;99.90
66366;DHT22;53162;56.418;23.752;2022-07-06T13:44:12;19.90;99.90
66366;DHT22;53162;56.418;23.752;2022-07-06T13:46:41;19.90;99.90
66366;DHT22;53162;56.418;23.752;2022-07-06T13:49:10;19.90;99.90
66366;DHT22;53162;56.418;23.752;2022-07-06T13:51:38;20.10;99.90
66366;DHT22;53162;56.418;23.752;2022-07-06T13:54:08;20.10;99.90
66366;DHT22;53162;56.418;23.752;2022-07-06T13:56:37;20.00;99.90
66366;DHT22;53162;56.418;23.752;2022-07-06T13:59:05;19.90;99.90
66366;DHT22;53162;56.418;23.752;2022-07-06T14:01:33;19.60;99.90
66366;DHT22;53162;56.418;23.752;2022-07-06T14:04:02;19.50;99.90
66366;DHT22;53162;56.418;23.752;2022-07-06T14:06:30;19.40;99.90
66366;DHT22;53162;56.418;23.752;2022-07-06T14:08:58;19.40;99.90
66366;DHT22;53162;56.418;23.752;2022-07-06T14:11:26;19.20;99.90
66366;DHT22;53162;56.418;23.752;2022-07-06T14:13:55;19.30;99.90
66366;DHT22;53162;56.418;23.752;2022-07-06T14:16:23;19.20;99.90
66366;DHT22;53162;56.418;23.752;2022-07-06T14:18:53;19.00;99.90
66366;DHT22;53162;56.418;23.752;2022-07-06T14:21:20;19.00;99.90
66366;DHT22;53162;56.418;23.752;2022-07-06T14:23:49;18.70;99.90
66366;DHT22;53162;56.418;23.752;2022-07-06T14:26:17;18.70;99.90
66366;DHT22;53162;56.418;23.752;2022-07-06T14:28:45;18.60;99.90
66366;DHT22;53162;56.418;23.752;2022-07-06T14:31:13;18.50;99.90
66366;DHT22;53162;56.418;23.752;2022-07-06T14:33:41;18.30;99.90
66366;DHT22;53162;56.418;23.752;2022-07-06T14:36:11;18.20;99.90
66366;DHT22;53162;56.418;23.752;2022-07-06T14:38:40;18.20;99.90
66366;DHT22;53162;56.418;23.752;2022-07-06T14:41:09;18.20;99.90
66366;DHT22;53162;56.418;23.752;2022-07-06T14:43:37;18.20;99.90
66366;DHT22;53162;56.418;23.752;2022-07-06T14:46:05;18.30;99.90
66366;DHT22;53162;56.418;23.752;2022-07-06T14:48:33;18.30;99.90
66366;DHT22;53162;56.418;23.752;2022-07-06T14:51:02;18.30;99.90
66366;DHT22;53162;56.418;23.752;2022-07-06T14:53:30;18.20;99.90
66366;DHT22;53162;56.418;23.752;2022-07-06T14:55:58;18.30;99.90
66366;DHT22;53162;56.418;23.752;2022-07-06T14:58:26;18.30;99.90
66366;DHT22;53162;56.418;23.752;2022-07-06T15:00:54;18.40;99.90
66366;DHT22;53162;56.418;23.752;2022-07-06T15:03:23;18.40;99.90
66366;DHT22;53162;56.418;23.752;2022-07-06T15:05:51;18.40;99.90
66366;DHT22;53162;56.418;23.752;2022-07-06T15:08:21;18.40;99.90
66366;DHT22;53162;56.418;23.752;2022-07-06T15:10:49;18.30;99.90
66366;DHT22;53162;56.418;23.752;2022-07-06T15:13:18;18.40;99.90
66366;DHT22;53162;56.418;23.752;2022-07-06T15:15:46;18.30;99.90
66366;DHT22;53162;56.418;23.752;2022-07-06T15:18:14;18.30;99.90
66366;DHT22;53162;56.418;23.752;2022-07-06T15:20:42;18.50;99.90
66366;DHT22;53162;56.418;23.752;2022-07-06T15:23:11;18.60;99.90
66366;DHT22;53162;56.418;23.752;2022-07-06T15:25:40;18.70;99.90
66366;DHT22;53162;56.418;23.752;2022-07-06T15:28:08;18.80;99.90